Flight Track Log - Related Links

Times and Time Zones

All times are in EDT time to prevent confusion due to time zone crossing. See the UAL4498 flight status page for this flight to view local times or setup timezone preferences in your user account.

Time Position Orientation Groundspeed Altitude Reporting Facility
EDT Latitude Longitude Course Direction KTS MPH feet Rate Location/Type
Thu 02:14:20 PM 39.7000 -86.3000 218° Southwest 156 180 1,500  Level Indianapolis TRACON
Thu 02:15:08 PM 39.6667 -86.3333 218° Southwest 187 215 4,100 3,278 Climbing Indianapolis TRACON
Thu 02:16:08 PM 39.6142 -86.3481 192° South 217 250 7,400 3,049 Climbing Indianapolis Center
Thu 02:17:10 PM 39.5819 -86.2714 119° Southeast 279 321 10,300 2,032 Climbing Indianapolis Center
Thu 02:18:12 PM 39.6150 -86.1572 69° East 339 390 11,600 1,597 Climbing Indianapolis Center
Thu 02:19:14 PM 39.6539 -86.0264 69° East 386 444 13,600 2,226 Climbing Indianapolis Center
Thu 02:20:16 PM 39.7006 -85.8672 69° East 404 465 16,200 2,177 Climbing Indianapolis Center
Thu 02:21:18 PM 39.7419 -85.7283 69° East 409 471 18,100 1,790 Climbing Indianapolis Center
Thu 02:22:20 PM 39.7836 -85.5861 69° East 420 483 19,900 1,597 Climbing Indianapolis Center
Thu 02:23:22 PM 39.8272 -85.4372 69° East 435 501 21,400 1,403 Climbing Indianapolis Center
Thu 02:24:24 PM 39.8722 -85.2833 69° East 451 519 22,800 774 Climbing Indianapolis Center
Thu 02:25:26 PM 39.9058 -85.1122 76° East 483 556 23,000 97 Climbing Indianapolis Center
Thu 02:26:28 PM 39.9372 -84.9039 79° East 498 573 23,000  Level Indianapolis Center
Thu 02:27:30 PM 39.9731 -84.7494 73° East 491 565 23,000  Level Indianapolis Center
Thu 02:28:32 PM 40.0233 -84.5803 69° East 496 571 23,000  Level Indianapolis Center
Thu 02:29:34 PM 40.0825 -84.3808 69° East 499 574 23,000  Level Indianapolis Center
Thu 02:30:36 PM 40.1314 -84.2125 69° East 489 563 23,000  Level Indianapolis Center
Thu 02:31:38 PM 40.1794 -84.0417 70° East 495 570 23,000  Level Indianapolis Center
Thu 02:32:40 PM 40.2297 -83.8697 69° East 499 574 23,000 -145 Level Indianapolis Center
Thu 02:33:42 PM 40.2775 -83.7000 70° East 491 565 22,700 -629 Descending Indianapolis Center
Thu 02:34:44 PM 40.3250 -83.5336 69° East 483 556 21,700 -968 Descending Indianapolis Center
Thu 02:35:46 PM 40.3714 -83.3658 70° East 484 557 20,700 -976 Descending Indianapolis Center
Thu 02:36:47 PM 40.4178 -83.2056 69° East 467 537 19,700 -780 Descending Indianapolis Center
Thu 02:37:49 PM 40.4939 -83.0750 52° Northeast 445 512 19,100 -774 Descending Indianapolis Center
Thu 02:38:51 PM 40.5925 -82.9475 44° Northeast 443 510 18,100 -1,091 Descending Indianapolis Center
Thu 02:39:39 PM 40.6528 -82.8711 44° Northeast 427 491 17,100 -1,444 Descending Cleveland Center
Thu 02:40:39 PM 40.7364 -82.7617 45° Northeast 417 480 15,500 -1,657 Descending Cleveland Center
Thu 02:41:24 PM 40.8047 -82.6761 43° Northeast 419 482 14,200 -1,700 Descending Cleveland Center
Thu 02:41:39 PM 40.8197 -82.6547 47° Northeast 417 480 13,800 -2,400 Descending Cleveland Center
Thu 02:42:39 PM 40.8986 -82.5500 45° Northeast 409 471 11,200 -1,900 Descending Cleveland Center
Thu 02:43:39 PM 40.9733 -82.4478 46° Northeast 396 456 10,000 -571 Descending Cleveland Center
Thu 02:44:45 PM 41.0606 -82.3317 45° Northeast 374 430 10,000  Level Cleveland Center
Thu 02:45:39 PM 41.1203 -82.2506 46° Northeast 374 430 10,000  Level Cleveland Center
Thu 02:46:46 PM 41.2094 -82.1289 46° Northeast 384 442 10,000 -150 Level Cleveland Center
Thu 02:47:39 PM 41.2525 -82.0358 58° Northeast 352 405 9,700 -744 Descending Cleveland Center
Thu 02:48:47 PM 41.3017 -81.9292 58° Northeast 293 337 8,500 -1,000 Descending Cleveland Center
Thu 02:49:39 PM 41.3403 -81.8442 59° Northeast 298 343 7,700 -1,018 Descending Cleveland Center
Thu 02:50:39 PM 41.3850 -81.7539 57° Northeast 291 335 6,600 -1,200 Descending Cleveland Center
Thu 02:51:49 PM 41.4400 -81.6522 54° Northeast 280 322 5,100 -1,191 Descending Cleveland Center
Thu 02:52:50 PM 41.4925 -81.6172 27° Northeast 219 252 4,000 -692 Descending Cleveland Center
Thu 02:54:00 PM 41.4393 -81.7515 242° Southwest  Level FlightAware Approximate
Thu 02:54:51 PM 41.4956 -81.7253 242° Southwest 164 189 3,000  Level Cleveland Center
Thu 02:55:52 PM 41.4661 -81.7692 228° Southwest 159 183 2,500 -492 Descending Cleveland Center

Login

Don't have an account? Register now (free) for customized features, flight alerts, and more!